createdAt,value
2018-09-05T00:01:45.489Z,56076.85
2018-09-05T00:04:14.670Z,56076.85
2018-09-05T00:06:43.804Z,56071.71
2018-09-05T00:09:12.968Z,56034.70
2018-09-05T00:11:42.104Z,56082.00
2018-09-05T00:14:11.212Z,56047.03
2018-09-05T00:16:40.353Z,56043.95
2018-09-05T00:19:09.591Z,56064.51
2018-09-05T00:21:38.761Z,56065.54
2018-09-05T00:24:07.939Z,56055.26
2018-09-05T00:26:37.119Z,56091.25
2018-09-05T00:29:06.277Z,56079.94
2018-09-05T00:31:35.439Z,56085.08
2018-09-05T00:34:04.625Z,56088.16
2018-09-05T00:36:33.779Z,56064.51
2018-09-05T00:39:02.902Z,56108.73
2018-09-05T00:41:32.079Z,56096.39
2018-09-05T00:44:01.223Z,56093.30
2018-09-05T00:46:30.415Z,56110.79
2018-09-05T00:48:59.568Z,56088.16
2018-09-05T00:51:28.679Z,56101.53
2018-09-05T00:53:57.875Z,56075.82
2018-09-05T00:56:27.027Z,56090.22
2018-09-05T00:58:56.248Z,56080.96
2018-09-05T01:01:25.488Z,56090.22
2018-09-05T01:03:54.644Z,56111.81
2018-09-05T01:06:23.807Z,56091.25
2018-09-05T01:08:53.047Z,56098.45
2018-09-05T01:11:22.226Z,56103.59
2018-09-05T01:13:51.334Z,56088.16
2018-09-05T01:16:20.477Z,56082.00
2018-09-05T01:18:49.596Z,56078.91
2018-09-05T01:21:18.778Z,56083.02
2018-09-05T01:23:47.921Z,56026.47
2018-09-05T01:26:17.204Z,56099.47
2018-09-05T01:28:46.553Z,56022.36
2018-09-05T01:31:15.865Z,56087.14
2018-09-05T01:33:44.988Z,56110.79
2018-09-05T01:36:17.021Z,56073.77
2018-09-05T01:38:52.788Z,56095.36
2018-09-05T01:41:22.008Z,56097.42
2018-09-05T01:43:51.185Z,56084.05
2018-09-05T01:46:20.389Z,56084.05
2018-09-05T01:48:49.557Z,56092.28
2018-09-05T01:51:18.756Z,56086.11
2018-09-05T01:53:47.873Z,56108.73
2018-09-05T01:56:17.046Z,56072.74
2018-09-05T01:58:46.181Z,56092.28
2018-09-05T02:01:15.312Z,56106.67
2018-09-05T02:03:44.802Z,56092.28
2018-09-05T02:06:13.964Z,56082.00
2018-09-05T02:08:43.109Z,56119.01
2018-09-05T02:11:12.210Z,56102.56
2018-09-05T02:13:41.312Z,56083.02
2018-09-05T02:16:10.520Z,56060.40
2018-09-05T02:18:39.642Z,56086.11
2018-09-05T02:21:09.053Z,56106.67
2018-09-05T02:23:38.165Z,56104.62
2018-09-05T02:26:07.305Z,56112.84
2018-09-05T02:28:36.462Z,56119.01
2018-09-05T02:31:06.341Z,56067.60
2018-09-05T02:33:35.528Z,56120.04
2018-09-05T02:36:04.820Z,56079.94
2018-09-05T02:38:34.043Z,56083.02
2018-09-05T02:41:03.184Z,56071.71
2018-09-05T02:43:37.685Z,56095.36
2018-09-05T02:46:06.844Z,56129.29
2018-09-05T02:48:36.068Z,56114.90
2018-09-05T02:51:05.440Z,56106.67
2018-09-05T02:53:34.607Z,56127.23
2018-09-05T02:56:04.313Z,56108.73
2018-09-05T02:58:36.146Z,56100.50
2018-09-05T03:01:05.262Z,56138.55
2018-09-05T03:03:34.426Z,56121.07
2018-09-05T03:06:03.556Z,56120.04
2018-09-05T03:08:32.735Z,56105.64
2018-09-05T03:11:01.914Z,56117.98
2018-09-05T03:13:31.109Z,56127.23
2018-09-05T03:16:00.251Z,56080.96
2018-09-05T03:18:29.617Z,56141.63
2018-09-05T03:20:58.692Z,56079.94
2018-09-05T03:23:27.831Z,56102.56
2018-09-05T03:25:57.193Z,56108.73
2018-09-05T03:28:26.340Z,56113.87
2018-09-05T03:30:55.481Z,56123.12
2018-09-05T03:33:24.622Z,56092.28
2018-09-05T03:35:53.788Z,56098.45
2018-09-05T03:38:22.946Z,56108.73
2018-09-05T03:40:52.113Z,56137.52
2018-09-05T03:43:21.293Z,56100.50
2018-09-05T03:45:50.421Z,56094.33
2018-09-05T03:48:19.530Z,56116.95
2018-09-05T03:50:48.640Z,56102.56
2018-09-05T03:53:17.734Z,56100.50
2018-09-05T03:55:46.891Z,56133.41
2018-09-05T03:58:16.050Z,56141.63
2018-09-05T04:00:45.196Z,56082.00
2018-09-05T04:03:14.360Z,56121.07
2018-09-05T04:05:43.512Z,56131.35
2018-09-05T04:08:12.635Z,56111.81
2018-09-05T04:10:42.024Z,56138.55
2018-09-05T04:13:11.347Z,56148.83
2018-09-05T04:15:40.521Z,56080.96
2018-09-05T04:18:09.662Z,56109.76
2018-09-05T04:20:38.792Z,56109.76
2018-09-05T04:23:09.703Z,56088.16
2018-09-05T04:25:38.979Z,56106.67
2018-09-05T04:28:08.204Z,56084.05
2018-09-05T04:30:37.343Z,56112.84
2018-09-05T04:33:06.514Z,56108.73
2018-09-05T04:35:35.669Z,56105.64
2018-09-05T04:38:04.882Z,56121.07
2018-09-05T04:40:34.042Z,56090.22
2018-09-05T04:43:03.175Z,56114.90
2018-09-05T04:45:32.345Z,56119.01
2018-09-05T04:48:01.502Z,56119.01
2018-09-05T04:50:30.692Z,56104.62
2018-09-05T04:52:59.898Z,56127.23
2018-09-05T04:55:29.019Z,56094.33
2018-09-05T04:57:58.193Z,56122.09
2018-09-05T05:00:27.573Z,56139.57
2018-09-05T05:02:56.769Z,56090.22
2018-09-05T05:05:25.937Z,56112.84
2018-09-05T05:07:55.124Z,56086.11
2018-09-05T05:10:24.257Z,56119.01
2018-09-05T05:12:53.429Z,56085.08
2018-09-05T05:15:22.656Z,56121.07
2018-09-05T05:17:51.849Z,56133.41
2018-09-05T05:20:21.008Z,56123.12
2018-09-05T05:22:50.158Z,56097.42
2018-09-05T05:25:19.292Z,56093.30
2018-09-05T05:27:48.419Z,56121.07
2018-09-05T05:30:17.732Z,56109.76
2018-09-05T05:32:46.968Z,56088.16
2018-09-05T05:35:16.134Z,56110.79
2018-09-05T05:37:45.265Z,56111.81
2018-09-05T05:40:14.529Z,56122.09
2018-09-05T05:42:43.744Z,56071.71
2018-09-05T05:45:12.883Z,56115.93
2018-09-05T05:47:42.057Z,56131.35
2018-09-05T05:50:11.186Z,56104.62
2018-09-05T05:52:40.336Z,56112.84
2018-09-05T05:55:09.494Z,56129.29
2018-09-05T05:57:38.731Z,56114.90
2018-09-05T06:00:08.095Z,56078.91
2018-09-05T06:02:37.250Z,56113.87
2018-09-05T06:05:06.379Z,56102.56
2018-09-05T06:07:35.501Z,56088.16
2018-09-05T06:10:04.724Z,56135.46
2018-09-05T06:12:33.823Z,56128.27
2018-09-05T06:15:02.959Z,56102.56
2018-09-05T06:17:32.078Z,56142.66
2018-09-05T06:20:01.236Z,56112.84
2018-09-05T06:22:30.920Z,56098.45
2018-09-05T06:25:00.103Z,56123.12
2018-09-05T06:27:29.264Z,56135.46
2018-09-05T06:29:58.378Z,56123.12
2018-09-05T06:32:27.514Z,56092.28
2018-09-05T06:34:56.676Z,56131.35
2018-09-05T06:37:25.828Z,56104.62
2018-09-05T06:39:55.006Z,56112.84
2018-09-05T06:42:24.215Z,56129.29
2018-09-05T06:44:53.485Z,56106.67
2018-09-05T06:47:22.565Z,56129.29
2018-09-05T06:49:51.747Z,56106.67
2018-09-05T06:52:21.062Z,56097.42
2018-09-05T06:54:50.219Z,56128.27
2018-09-05T06:57:19.354Z,56133.41
2018-09-05T06:59:48.518Z,56126.21
2018-09-05T07:02:17.660Z,56102.56
2018-09-05T07:04:46.789Z,56079.94
2018-09-05T07:07:15.969Z,56098.45
2018-09-05T07:09:45.135Z,56128.27
2018-09-05T07:12:14.273Z,56114.90
2018-09-05T07:14:43.487Z,56119.01
2018-09-05T07:17:12.654Z,56108.73
2018-09-05T07:19:41.855Z,56108.73
2018-09-05T07:22:11.163Z,56113.87
2018-09-05T07:24:40.263Z,56087.14
2018-09-05T07:27:09.517Z,56123.12
2018-09-05T07:29:38.701Z,56095.36
2018-09-05T07:32:07.867Z,56121.07
2018-09-05T07:34:37.047Z,56079.94
2018-09-05T07:37:06.177Z,56116.95
2018-09-05T07:39:35.299Z,56127.23
2018-09-05T07:42:33.477Z,56123.12
2018-09-05T07:45:02.650Z,56094.33
2018-09-05T07:47:31.776Z,56105.64
2018-09-05T07:50:00.957Z,56098.45
2018-09-05T07:52:30.332Z,56084.05
2018-09-05T07:54:59.488Z,56100.50
2018-09-05T07:57:28.708Z,56104.62
2018-09-05T07:59:57.907Z,56127.23
2018-09-05T08:02:27.204Z,56126.21
2018-09-05T08:04:56.538Z,56097.42
2018-09-05T08:07:25.657Z,56097.42
2018-09-05T08:09:54.738Z,56093.30
2018-09-05T08:12:23.909Z,56096.39
2018-09-05T08:14:53.094Z,56108.73
2018-09-05T08:17:22.323Z,56099.47
2018-09-05T08:19:51.486Z,56084.05
2018-09-05T08:22:20.714Z,56098.45
2018-09-05T08:24:49.991Z,56094.33
2018-09-05T08:27:22.845Z,56076.85
2018-09-05T08:29:53.081Z,56067.60
2018-09-05T08:32:22.534Z,56079.94
2018-09-05T08:34:51.823Z,56077.88
2018-09-05T08:37:21.093Z,56061.43
2018-09-05T08:39:50.046Z,56121.07
2018-09-05T08:42:19.331Z,56086.11
2018-09-05T08:44:48.648Z,56102.56
2018-09-05T08:47:17.599Z,56041.89
2018-09-05T08:49:46.786Z,56080.96
2018-09-05T08:52:15.887Z,56059.37
2018-09-05T08:54:45.025Z,56059.37
2018-09-05T08:57:14.185Z,56063.48
2018-09-05T08:59:43.405Z,56054.23
2018-09-05T09:02:12.510Z,56078.91
2018-09-05T09:04:41.767Z,56051.14
2018-09-05T09:07:10.845Z,56068.62
2018-09-05T09:09:39.988Z,56040.86
2018-09-05T09:12:09.119Z,56054.23
2018-09-05T09:14:38.319Z,56055.26
2018-09-05T09:17:07.506Z,56016.19
2018-09-05T09:19:36.650Z,56034.70
2018-09-05T09:22:05.831Z,56036.75
2018-09-05T09:24:35.034Z,56044.98
2018-09-05T09:27:04.183Z,56037.78
2018-09-05T09:29:33.366Z,56060.40
2018-09-05T09:32:02.917Z,56055.26
2018-09-05T09:34:32.031Z,56029.55
2018-09-05T09:37:01.380Z,56053.20
2018-09-05T09:39:30.518Z,56047.03
2018-09-05T09:41:59.654Z,56033.67
2018-09-05T09:44:28.834Z,56004.87
2018-09-05T09:46:58.334Z,56027.50
2018-09-05T09:49:27.567Z,56018.24
2018-09-05T09:52:02.097Z,56030.58
2018-09-05T09:54:31.336Z,56001.79
2018-09-05T09:57:00.530Z,55990.48
2018-09-05T09:59:29.650Z,56005.90
2018-09-05T10:02:04.031Z,56027.50
2018-09-05T10:04:38.649Z,56046.00
2018-09-05T10:07:13.172Z,56007.96
2018-09-05T10:09:47.579Z,56014.13
2018-09-05T10:12:21.907Z,56019.27
2018-09-05T10:15:53.983Z,56024.41
2018-09-05T10:18:29.837Z,55993.57
2018-09-05T10:20:59.310Z,55967.86
2018-09-05T10:23:28.556Z,56018.24
2018-09-05T10:25:57.772Z,55962.72
2018-09-05T10:28:26.960Z,55940.10
2018-09-05T10:30:56.130Z,55929.82
2018-09-05T10:33:25.297Z,55910.28
2018-09-05T10:35:54.550Z,55912.34
2018-09-05T10:38:23.722Z,55940.10
2018-09-05T10:40:52.891Z,55935.98
2018-09-05T10:43:22.065Z,55935.98
2018-09-05T10:45:51.235Z,55920.56
2018-09-05T10:48:20.343Z,55886.63
2018-09-05T10:50:49.508Z,55923.65
2018-09-05T10:53:18.676Z,55949.35
2018-09-05T10:55:48.392Z,55932.90
2018-09-05T10:58:17.765Z,55940.10
2018-09-05T11:00:46.948Z,55945.24
2018-09-05T11:03:16.152Z,55934.96
2018-09-05T11:05:45.307Z,55941.13
2018-09-05T11:08:14.470Z,55924.68
2018-09-05T11:10:43.799Z,55949.35
2018-09-05T11:13:13.123Z,55965.80
2018-09-05T11:15:42.210Z,55948.32
2018-09-05T11:18:11.378Z,55966.83
2018-09-05T11:20:40.574Z,56001.79
2018-09-05T11:23:09.808Z,55985.34
2018-09-05T11:25:38.972Z,55985.34
2018-09-05T11:28:08.173Z,55991.51
2018-09-05T11:30:37.310Z,56010.02
2018-09-05T11:33:06.491Z,55992.54
2018-09-05T11:35:35.716Z,55987.40
2018-09-05T11:38:04.888Z,55997.68
2018-09-05T11:40:34.089Z,55990.48
2018-09-05T11:43:03.360Z,55967.86
2018-09-05T11:45:32.603Z,55999.73
2018-09-05T11:48:01.789Z,55969.92
2018-09-05T11:50:30.995Z,55971.97
2018-09-05T11:53:00.246Z,55966.83
2018-09-05T11:55:29.443Z,55977.11
2018-09-05T11:57:58.589Z,55962.72
2018-09-05T12:00:27.778Z,55985.34
2018-09-05T12:02:56.999Z,55956.55
2018-09-05T12:05:26.119Z,55982.25
2018-09-05T12:07:55.280Z,55985.34
2018-09-05T12:10:24.388Z,55954.49
2018-09-05T12:12:53.518Z,55982.25
2018-09-05T12:15:22.666Z,55944.21
2018-09-05T12:17:51.782Z,55942.16
2018-09-05T12:20:20.999Z,55950.38
2018-09-05T12:22:50.205Z,55939.07
2018-09-05T12:25:19.334Z,55938.04
2018-09-05T12:27:48.513Z,55981.23
2018-09-05T12:30:17.672Z,55978.14
2018-09-05T12:32:46.889Z,55954.49
2018-09-05T12:35:16.099Z,55944.21
2018-09-05T12:37:45.229Z,55926.73
2018-09-05T12:40:14.326Z,55924.68
2018-09-05T12:42:43.471Z,55927.76
2018-09-05T12:45:12.632Z,55900.00
2018-09-05T12:47:41.798Z,55919.54
2018-09-05T12:50:10.996Z,55968.89
2018-09-05T12:52:40.135Z,55896.91
2018-09-05T12:55:09.293Z,55940.10
2018-09-05T12:57:38.455Z,55904.11
2018-09-05T13:00:07.650Z,55896.91
2018-09-05T13:02:37.072Z,55921.59
2018-09-05T13:05:06.431Z,55906.17
2018-09-05T13:07:35.547Z,55892.80
2018-09-05T13:10:05.485Z,55919.54
2018-09-05T13:12:34.672Z,55911.31
2018-09-05T13:15:03.862Z,55901.03
2018-09-05T13:17:32.973Z,55901.03
2018-09-05T13:20:02.098Z,55903.08
2018-09-05T13:22:31.292Z,55891.77
2018-09-05T13:25:01.657Z,55907.20
2018-09-05T13:27:30.823Z,55902.05
2018-09-05T13:30:00.042Z,55901.03
2018-09-05T13:32:29.262Z,55876.35
2018-09-05T13:34:58.396Z,55882.52
2018-09-05T13:37:27.488Z,55876.35
2018-09-05T13:39:56.655Z,55903.08
2018-09-05T13:42:25.786Z,55835.22
2018-09-05T13:44:54.919Z,55889.72
2018-09-05T13:47:24.055Z,55890.75
2018-09-05T13:49:53.239Z,55894.86
2018-09-05T13:52:22.393Z,55920.56
2018-09-05T13:54:51.564Z,55888.69
2018-09-05T13:57:20.727Z,55866.07
2018-09-05T13:59:49.846Z,55915.42
2018-09-05T14:02:19.042Z,55932.90
2018-09-05T14:04:48.156Z,55886.63
2018-09-05T14:07:17.301Z,55925.70
2018-09-05T14:09:46.461Z,55930.84
2018-09-05T14:12:15.857Z,55926.73
2018-09-05T14:14:45.069Z,55906.17
2018-09-05T14:17:14.197Z,55937.01
2018-09-05T14:19:43.409Z,55962.72
2018-09-05T14:22:12.529Z,55929.82
2018-09-05T14:24:41.717Z,55915.42
2018-09-05T14:27:10.886Z,55892.80
2018-09-05T14:29:40.075Z,55907.20
2018-09-05T14:32:09.264Z,55919.54
2018-09-05T14:34:38.403Z,55923.65
2018-09-05T14:37:07.563Z,55900.00
2018-09-05T14:39:36.697Z,55937.01
2018-09-05T14:42:05.875Z,55909.25
2018-09-05T14:44:34.991Z,55903.08
2018-09-05T14:47:04.149Z,55926.73
2018-09-05T14:49:33.264Z,55927.76
2018-09-05T14:52:02.377Z,55917.48
2018-09-05T14:54:31.659Z,55893.83
2018-09-05T14:57:00.804Z,55928.79
2018-09-05T14:59:29.969Z,55909.25
2018-09-05T15:01:59.066Z,55931.87
2018-09-05T15:04:28.281Z,55901.03
2018-09-05T15:06:57.431Z,55968.89
2018-09-05T15:09:26.638Z,55922.62
2018-09-05T15:11:55.795Z,55938.04
2018-09-05T15:14:24.912Z,55952.44
2018-09-05T15:16:54.041Z,55930.84
2018-09-05T15:19:23.251Z,55921.59
2018-09-05T15:21:52.356Z,55926.73
2018-09-05T15:24:21.707Z,55939.07
2018-09-05T15:26:50.893Z,55927.76
2018-09-05T15:29:20.155Z,55922.62
2018-09-05T15:31:49.271Z,55939.07
2018-09-05T15:34:18.429Z,55932.90
2018-09-05T15:36:47.574Z,55944.21
2018-09-05T15:39:16.770Z,55927.76
2018-09-05T15:41:45.897Z,55914.39
2018-09-05T15:44:15.020Z,55959.63
2018-09-05T15:46:44.176Z,55964.78
2018-09-05T15:49:13.347Z,55931.87
2018-09-05T15:51:42.493Z,55935.98
2018-09-05T15:54:11.695Z,55976.09
2018-09-05T15:56:40.857Z,55966.83
2018-09-05T15:59:10.021Z,55962.72
2018-09-05T16:01:45.340Z,55939.07
2018-09-05T16:04:14.475Z,55940.10
2018-09-05T16:06:43.569Z,55966.83
2018-09-05T16:09:12.777Z,55956.55
2018-09-05T16:11:42.625Z,55948.32
2018-09-05T16:14:12.064Z,55960.66
2018-09-05T16:16:41.860Z,55974.03
2018-09-05T16:19:11.432Z,55938.04
2018-09-05T16:21:40.603Z,55934.96
2018-09-05T16:24:09.767Z,55912.34
2018-09-05T16:26:39.169Z,55935.98
2018-09-05T16:29:08.267Z,55954.49
2018-09-05T16:31:37.389Z,55940.10
2018-09-05T16:34:06.636Z,55946.27
2018-09-05T16:36:35.785Z,55968.89
2018-09-05T16:39:07.460Z,55957.58
2018-09-05T16:41:36.668Z,55965.80
2018-09-05T16:44:05.806Z,55977.11
2018-09-05T16:46:34.976Z,55940.10
2018-09-05T16:49:04.338Z,55985.34
2018-09-05T16:51:33.503Z,55965.80
2018-09-05T16:54:03.558Z,55968.89
2018-09-05T16:56:33.729Z,55970.95
2018-09-05T16:59:03.044Z,55960.66
2018-09-05T17:01:32.228Z,55980.20
2018-09-05T17:04:01.522Z,55983.28
2018-09-05T17:06:30.629Z,55957.58
2018-09-05T17:08:59.805Z,55948.32
2018-09-05T17:11:28.996Z,55958.61
2018-09-05T17:14:00.766Z,55995.62
2018-09-05T17:16:29.963Z,55973.00
2018-09-05T17:18:59.128Z,55977.11
2018-09-05T17:21:28.318Z,55981.23
2018-09-05T17:23:57.552Z,55977.11
2018-09-05T17:26:26.751Z,55981.23
2018-09-05T17:28:55.953Z,55981.23
2018-09-05T17:31:25.187Z,56006.93
2018-09-05T17:33:54.439Z,55959.63
2018-09-05T17:36:23.763Z,56008.99
2018-09-05T17:38:52.914Z,55968.89
2018-09-05T17:41:22.133Z,55991.51
2018-09-05T17:43:51.267Z,55981.23
2018-09-05T17:46:20.466Z,56004.87
2018-09-05T17:48:49.749Z,56001.79
2018-09-05T17:51:18.875Z,56026.47
2018-09-05T17:53:48.039Z,55997.68
2018-09-05T17:56:17.277Z,56001.79
2018-09-05T17:58:46.445Z,56005.90
2018-09-05T18:01:18.161Z,56007.96
2018-09-05T18:03:47.350Z,56011.05
2018-09-05T18:06:16.474Z,56011.05
2018-09-05T18:08:45.651Z,56015.16
2018-09-05T18:11:15.210Z,56007.96
2018-09-05T18:13:44.534Z,56016.19
2018-09-05T18:16:14.207Z,56036.75
2018-09-05T18:18:43.618Z,56016.19
2018-09-05T18:21:12.766Z,56029.55
2018-09-05T18:23:41.975Z,56036.75
2018-09-05T18:26:11.155Z,56017.21
2018-09-05T18:28:40.300Z,56007.96
2018-09-05T18:31:09.553Z,56006.93
2018-09-05T18:33:38.718Z,56038.81
2018-09-05T18:36:07.869Z,55999.73
2018-09-05T18:38:36.958Z,56028.52
2018-09-05T18:41:06.120Z,56012.07
2018-09-05T18:43:35.327Z,56011.05
2018-09-05T18:46:04.462Z,56019.27
2018-09-05T18:48:33.678Z,56036.75
2018-09-05T18:51:03.262Z,56043.95
2018-09-05T18:53:32.414Z,56024.41
2018-09-05T18:56:01.592Z,56016.19
2018-09-05T18:58:30.752Z,56031.61
2018-09-05T19:00:59.881Z,56022.36
2018-09-05T19:03:29.009Z,56036.75
2018-09-05T19:05:58.185Z,56055.26
2018-09-05T19:08:27.395Z,56007.96
2018-09-05T19:10:56.464Z,56032.64
2018-09-05T19:13:25.639Z,56030.58
2018-09-05T19:15:54.796Z,56024.41
2018-09-05T19:18:24.015Z,55996.65
2018-09-05T19:20:53.178Z,56013.10
2018-09-05T19:23:22.290Z,56032.64
2018-09-05T19:25:51.451Z,56031.61
2018-09-05T19:28:20.621Z,56024.41
2018-09-05T19:30:49.852Z,56059.37
2018-09-05T19:33:19.032Z,56035.72
2018-09-05T19:35:48.157Z,56059.37
2018-09-05T19:38:17.302Z,56040.86
2018-09-05T19:40:46.448Z,56059.37
2018-09-05T19:43:15.703Z,56060.40
2018-09-05T19:45:44.873Z,56050.12
2018-09-05T19:48:14.010Z,56041.89
2018-09-05T19:50:43.216Z,56047.03
2018-09-05T19:53:13.662Z,56047.03
2018-09-05T19:55:42.786Z,56037.78
2018-09-05T19:58:11.937Z,56040.86
2018-09-05T20:00:41.144Z,56039.84
2018-09-05T20:03:10.371Z,56052.18
2018-09-05T20:05:39.529Z,56059.37
2018-09-05T20:08:08.724Z,56059.37
2018-09-05T20:10:37.867Z,56015.16
2018-09-05T20:13:07.430Z,56034.70
2018-09-05T20:15:37.127Z,56051.14
2018-09-05T20:18:06.790Z,56030.58
2018-09-05T20:20:36.254Z,56060.40
2018-09-05T20:23:05.435Z,56053.20
2018-09-05T20:25:34.791Z,56039.84
2018-09-05T20:28:03.927Z,56042.92
2018-09-05T20:30:33.078Z,56035.72
2018-09-05T20:33:02.304Z,56061.43
2018-09-05T20:35:31.381Z,56034.70
2018-09-05T20:38:00.492Z,56054.23
2018-09-05T20:40:29.695Z,56066.57
2018-09-05T20:42:58.982Z,56064.51
2018-09-05T20:45:28.143Z,56071.71
2018-09-05T20:47:57.314Z,56051.14
2018-09-05T20:50:33.112Z,56050.12
2018-09-05T20:53:02.238Z,56049.09
2018-09-05T20:55:31.347Z,56065.54
2018-09-05T20:58:00.525Z,56078.91
2018-09-05T21:00:29.660Z,56069.65
2018-09-05T21:02:58.790Z,56047.03
2018-09-05T21:05:27.969Z,56089.19
2018-09-05T21:07:57.131Z,56052.18
2018-09-05T21:10:26.232Z,56054.23
2018-09-05T21:12:55.365Z,56087.14
2018-09-05T21:15:24.482Z,56066.57
2018-09-05T21:17:53.822Z,56062.46
2018-09-05T21:20:22.914Z,56078.91
2018-09-05T21:22:52.211Z,56079.94
2018-09-05T21:25:21.478Z,56068.62
2018-09-05T21:27:50.668Z,56064.51
2018-09-05T21:30:19.929Z,56049.09
2018-09-05T21:32:49.128Z,56050.12
2018-09-05T21:35:18.247Z,56075.82
2018-09-05T21:37:54.212Z,56077.88
2018-09-05T21:40:23.331Z,56047.03
2018-09-05T21:42:52.645Z,56034.70
2018-09-05T21:45:21.857Z,56042.92
2018-09-05T21:47:51.041Z,56058.34
2018-09-05T21:50:20.191Z,56026.47
2018-09-05T21:52:49.393Z,56071.71
2018-09-05T21:55:18.507Z,56071.71
2018-09-05T21:57:47.649Z,56051.14
2018-09-05T22:00:16.751Z,56046.00
2018-09-05T22:02:45.919Z,56079.94
2018-09-05T22:05:15.043Z,56057.32
2018-09-05T22:07:47.054Z,56055.26
2018-09-05T22:10:16.201Z,56071.71
2018-09-05T22:12:45.359Z,56075.82
2018-09-05T22:15:14.480Z,56057.32
2018-09-05T22:17:43.660Z,56051.14
2018-09-05T22:20:12.799Z,56031.61
2018-09-05T22:22:41.995Z,56074.80
2018-09-05T22:25:11.164Z,56063.48
2018-09-05T22:27:40.445Z,56035.72
2018-09-05T22:30:09.599Z,56043.95
2018-09-05T22:32:38.708Z,56032.64
2018-09-05T22:35:07.850Z,56042.92
2018-09-05T22:37:36.993Z,56040.86
2018-09-05T22:40:06.178Z,56044.98
2018-09-05T22:42:35.883Z,56063.48
2018-09-05T22:45:22.282Z,56059.37
2018-09-05T22:48:21.242Z,56072.74
2018-09-05T22:51:11.535Z,56069.65
2018-09-05T22:54:02.027Z,56089.19
2018-09-05T22:57:52.708Z,56069.65
2018-09-05T23:00:39.233Z,56086.11
2018-09-05T23:07:39.802Z,56049.09
2018-09-05T23:10:26.392Z,56047.03
2018-09-05T23:13:12.756Z,56064.51
2018-09-05T23:15:59.227Z,56077.88
2018-09-05T23:19:43.145Z,56063.48
2018-09-05T23:22:12.273Z,56065.54
2018-09-05T23:24:41.418Z,56079.94
2018-09-05T23:27:10.597Z,56047.03
2018-09-05T23:29:39.692Z,56073.77
2018-09-05T23:32:08.828Z,56063.48
2018-09-05T23:34:37.936Z,56061.43
2018-09-05T23:37:07.107Z,56075.82
2018-09-05T23:39:36.190Z,56047.03
2018-09-05T23:42:05.357Z,56099.47
2018-09-05T23:44:34.490Z,56077.88
2018-09-05T23:47:03.667Z,56070.68
2018-09-05T23:49:32.803Z,56099.47
2018-09-05T23:52:01.938Z,56071.71
2018-09-05T23:54:31.090Z,56072.74
2018-09-05T23:57:00.202Z,56100.50
2018-09-05T23:59:29.318Z,56052.18
